sensor_id;sensor_type;location;lat;lon;timestamp;pressure;altitude;pressure_sealevel;temperature;humidity
4415;BME280;2220;42.670;23.398;2023-02-23T00:01:56;94755.31;;;6.82;100.00
4415;BME280;2220;42.670;23.398;2023-02-23T00:04:23;94750.66;;;6.67;100.00
4415;BME280;2220;42.670;23.398;2023-02-23T00:06:49;94746.63;;;6.59;100.00
4415;BME280;2220;42.670;23.398;2023-02-23T00:09:18;94745.13;;;6.63;100.00
4415;BME280;2220;42.670;23.398;2023-02-23T00:11:54;94751.47;;;6.56;100.00
4415;BME280;2220;42.670;23.398;2023-02-23T00:14:23;94763.16;;;6.58;100.00
4415;BME280;2220;42.670;23.398;2023-02-23T00:16:51;94760.34;;;6.60;100.00
4415;BME280;2220;42.670;23.398;2023-02-23T00:19:17;94765.41;;;6.55;100.00
4415;BME280;2220;42.670;23.398;2023-02-23T00:21:43;94755.31;;;6.53;100.00
4415;BME280;2220;42.670;23.398;2023-02-23T00:24:12;94759.34;;;6.49;100.00
4415;BME280;2220;42.670;23.398;2023-02-23T00:26:43;94766.38;;;6.37;100.00
4415;BME280;2220;42.670;23.398;2023-02-23T00:29:19;94757.72;;;6.20;100.00
4415;BME280;2220;42.670;23.398;2023-02-23T00:31:45;94754.25;;;6.26;100.00
4415;BME280;2220;42.670;23.398;2023-02-23T00:34:12;94759.97;;;6.28;100.00
4415;BME280;2220;42.670;23.398;2023-02-23T00:36:41;94752.13;;;6.11;100.00
4415;BME280;2220;42.670;23.398;2023-02-23T00:39:10;94763.22;;;6.23;100.00
4415;BME280;2220;42.670;23.398;2023-02-23T00:41:47;94754.13;;;6.21;100.00
4415;BME280;2220;42.670;23.398;2023-02-23T00:44:13;94767.19;;;6.14;100.00
4415;BME280;2220;42.670;23.398;2023-02-23T00:46:42;94755.50;;;6.11;100.00
4415;BME280;2220;42.670;23.398;2023-02-23T00:49:11;94765.81;;;6.23;100.00
4415;BME280;2220;42.670;23.398;2023-02-23T00:51:36;94767.63;;;6.34;100.00
4415;BME280;2220;42.670;23.398;2023-02-23T00:54:03;94762.09;;;6.31;100.00
4415;BME280;2220;42.670;23.398;2023-02-23T00:56:29;94773.78;;;6.33;100.00
4415;BME280;2220;42.670;23.398;2023-02-23T00:58:55;94774.34;;;6.35;100.00
4415;BME280;2220;42.670;23.398;2023-02-23T01:01:21;94771.53;;;6.37;100.00
4415;BME280;2220;42.670;23.398;2023-02-23T01:03:47;94762.66;;;6.33;100.00
4415;BME280;2220;42.670;23.398;2023-02-23T01:06:14;94766.50;;;6.07;100.00
4415;BME280;2220;42.670;23.398;2023-02-23T01:08:42;94767.50;;;6.17;100.00
4415;BME280;2220;42.670;23.398;2023-02-23T01:11:17;94773.25;;;6.20;100.00
4415;BME280;2220;42.670;23.398;2023-02-23T01:13:44;94771.34;;;6.15;100.00
4415;BME280;2220;42.670;23.398;2023-02-23T01:16:14;94763.00;;;6.25;100.00
4415;BME280;2220;42.670;23.398;2023-02-23T01:18:40;94759.19;;;6.15;100.00
4415;BME280;2220;42.670;23.398;2023-02-23T01:21:17;94754.00;;;6.15;100.00
4415;BME280;2220;42.670;23.398;2023-02-23T01:23:43;94752.69;;;6.13;100.00
4415;BME280;2220;42.670;23.398;2023-02-23T01:26:22;94745.03;;;6.18;100.00
4415;BME280;2220;42.670;23.398;2023-02-23T01:28:51;94743.78;;;6.09;100.00
4415;BME280;2220;42.670;23.398;2023-02-23T01:31:18;94731.88;;;6.08;100.00
4415;BME280;2220;42.670;23.398;2023-02-23T01:33:43;94737.41;;;6.11;100.00
4415;BME280;2220;42.670;23.398;2023-02-23T01:36:10;94724.59;;;6.05;100.00
4415;BME280;2220;42.670;23.398;2023-02-23T01:38:37;94735.81;;;6.10;100.00
4415;BME280;2220;42.670;23.398;2023-02-23T01:41:03;94737.63;;;6.10;100.00
4415;BME280;2220;42.670;23.398;2023-02-23T01:43:28;94729.06;;;6.09;100.00
4415;BME280;2220;42.670;23.398;2023-02-23T01:45:56;94720.97;;;6.06;100.00
4415;BME280;2220;42.670;23.398;2023-02-23T01:48:34;94714.13;;;6.00;100.00
4415;BME280;2220;42.670;23.398;2023-02-23T01:51:08;94720.66;;;6.02;100.00
4415;BME280;2220;42.670;23.398;2023-02-23T01:53:36;94718.84;;;6.03;100.00
4415;BME280;2220;42.670;23.398;2023-02-23T01:56:10;94722.81;;;5.94;100.00
4415;BME280;2220;42.670;23.398;2023-02-23T01:58:42;94715.69;;;6.01;100.00
4415;BME280;2220;42.670;23.398;2023-02-23T02:01:10;94710.53;;;6.01;100.00
4415;BME280;2220;42.670;23.398;2023-02-23T02:03:42;94711.78;;;5.98;100.00
4415;BME280;2220;42.670;23.398;2023-02-23T02:06:11;94716.16;;;5.98;100.00
4415;BME280;2220;42.670;23.398;2023-02-23T02:08:40;94712.31;;;6.00;100.00
4415;BME280;2220;42.670;23.398;2023-02-23T02:11:12;94708.94;;;5.88;100.00
4415;BME280;2220;42.670;23.398;2023-02-23T02:13:57;94712.25;;;5.95;100.00
4415;BME280;2220;42.670;23.398;2023-02-23T02:46:14;94668.94;;;5.20;100.00
4415;BME280;2220;42.670;23.398;2023-02-23T02:51:29;94663.13;;;5.25;100.00
4415;BME280;2220;42.670;23.398;2023-02-23T02:56:24;94656.41;;;5.24;100.00
4415;BME280;2220;42.670;23.398;2023-02-23T02:58:51;94650.44;;;5.23;100.00
4415;BME280;2220;42.670;23.398;2023-02-23T03:01:18;94654.59;;;5.24;100.00
4415;BME280;2220;42.670;23.398;2023-02-23T03:04:23;94649.06;;;5.21;100.00
4415;BME280;2220;42.670;23.398;2023-02-23T03:07:17;94650.22;;;5.25;100.00
4415;BME280;2220;42.670;23.398;2023-02-23T03:13:52;94640.34;;;5.22;100.00
4415;BME280;2220;42.670;23.398;2023-02-23T03:16:58;94641.13;;;5.22;100.00
4415;BME280;2220;42.670;23.398;2023-02-23T03:19:56;94643.72;;;5.22;100.00
4415;BME280;2220;42.670;23.398;2023-02-23T03:23:11;94641.22;;;5.04;100.00
4415;BME280;2220;42.670;23.398;2023-02-23T03:27:06;94636.38;;;4.96;100.00
4415;BME280;2220;42.670;23.398;2023-02-23T03:32:43;94607.06;;;4.67;100.00
4415;BME280;2220;42.670;23.398;2023-02-23T03:35:44;94581.59;;;4.59;100.00
4415;BME280;2220;42.670;23.398;2023-02-23T03:38:33;94586.78;;;4.29;100.00
4415;BME280;2220;42.670;23.398;2023-02-23T03:41:20;94560.44;;;4.38;100.00
4415;BME280;2220;42.670;23.398;2023-02-23T03:44:10;94547.09;;;4.30;100.00
4415;BME280;2220;42.670;23.398;2023-02-23T03:46:56;94516.78;;;4.13;100.00
4415;BME280;2220;42.670;23.398;2023-02-23T03:49:41;94487.34;;;4.21;100.00
4415;BME280;2220;42.670;23.398;2023-02-23T03:52:35;94440.25;;;4.14;100.00
4415;BME280;2220;42.670;23.398;2023-02-23T03:55:26;94432.63;;;4.31;100.00
4415;BME280;2220;42.670;23.398;2023-02-23T03:58:14;94419.50;;;4.32;100.00
4415;BME280;2220;42.670;23.398;2023-02-23T04:01:02;94424.00;;;4.13;100.00
4415;BME280;2220;42.670;23.398;2023-02-23T04:03:49;94421.41;;;4.13;100.00
4415;BME280;2220;42.670;23.398;2023-02-23T04:06:37;94419.50;;;3.97;100.00
4415;BME280;2220;42.670;23.398;2023-02-23T04:09:22;94366.06;;;4.04;100.00
4415;BME280;2220;42.670;23.398;2023-02-23T04:15:17;94318.09;;;4.03;100.00
4415;BME280;2220;42.670;23.398;2023-02-23T04:17:44;94295.59;;;3.87;100.00
4415;BME280;2220;42.670;23.398;2023-02-23T04:20:11;94296.59;;;3.86;100.00
4415;BME280;2220;42.670;23.398;2023-02-23T04:22:38;94265.81;;;3.79;100.00
4415;BME280;2220;42.670;23.398;2023-02-23T04:25:04;94232.41;;;3.84;100.00
4415;BME280;2220;42.670;23.398;2023-02-23T04:27:30;94205.84;;;3.84;100.00
4415;BME280;2220;42.670;23.398;2023-02-23T04:29:56;94164.28;;;3.92;100.00
4415;BME280;2220;42.670;23.398;2023-02-23T04:32:22;94158.28;;;4.15;100.00
4415;BME280;2220;42.670;23.398;2023-02-23T04:34:47;94159.31;;;4.14;100.00
4415;BME280;2220;42.670;23.398;2023-02-23T04:37:14;94184.53;;;4.00;100.00
4415;BME280;2220;42.670;23.398;2023-02-23T04:39:40;94161.41;;;3.88;100.00
4415;BME280;2220;42.670;23.398;2023-02-23T04:42:12;94132.28;;;3.88;100.00
4415;BME280;2220;42.670;23.398;2023-02-23T04:44:38;94128.38;;;3.85;100.00
4415;BME280;2220;42.670;23.398;2023-02-23T04:47:03;94147.38;;;3.84;100.00
4415;BME280;2220;42.670;23.398;2023-02-23T04:49:29;94172.94;;;3.86;100.00
4415;BME280;2220;42.670;23.398;2023-02-23T04:51:55;94180.44;;;3.76;100.00
4415;BME280;2220;42.670;23.398;2023-02-23T04:54:20;94216.41;;;3.94;100.00
4415;BME280;2220;42.670;23.398;2023-02-23T04:56:45;94239.59;;;3.94;100.00
4415;BME280;2220;42.670;23.398;2023-02-23T04:59:11;94260.19;;;3.94;100.00
4415;BME280;2220;42.670;23.398;2023-02-23T05:01:37;94281.59;;;3.95;100.00
4415;BME280;2220;42.670;23.398;2023-02-23T05:04:03;94294.72;;;3.93;100.00
4415;BME280;2220;42.670;23.398;2023-02-23T05:06:29;94301.53;;;4.11;100.00
4415;BME280;2220;42.670;23.398;2023-02-23T05:08:55;94314.84;;;4.08;100.00
4415;BME280;2220;42.670;23.398;2023-02-23T05:11:20;94329.44;;;4.02;100.00
4415;BME280;2220;42.670;23.398;2023-02-23T05:13:45;94344.22;;;3.95;100.00
4415;BME280;2220;42.670;23.398;2023-02-23T05:16:11;94335.47;;;3.96;100.00
4415;BME280;2220;42.670;23.398;2023-02-23T05:18:36;94345.09;;;4.01;100.00
4415;BME280;2220;42.670;23.398;2023-02-23T05:21:07;94346.00;;;4.06;100.00
4415;BME280;2220;42.670;23.398;2023-02-23T05:23:34;94352.63;;;4.02;100.00
4415;BME280;2220;42.670;23.398;2023-02-23T05:26:05;94343.88;;;4.03;100.00
4415;BME280;2220;42.670;23.398;2023-02-23T05:28:32;94357.66;;;4.09;100.00
4415;BME280;2220;42.670;23.398;2023-02-23T05:30:58;94372.00;;;4.05;100.00
4415;BME280;2220;42.670;23.398;2023-02-23T05:33:24;94374.25;;;4.13;100.00
4415;BME280;2220;42.670;23.398;2023-02-23T05:35:49;94389.38;;;4.09;100.00
4415;BME280;2220;42.670;23.398;2023-02-23T05:38:15;94402.94;;;4.05;100.00
4415;BME280;2220;42.670;23.398;2023-02-23T05:40:40;94408.19;;;3.98;100.00
4415;BME280;2220;42.670;23.398;2023-02-23T05:43:06;94411.31;;;4.00;100.00
4415;BME280;2220;42.670;23.398;2023-02-23T05:45:31;94411.47;;;4.29;100.00
4415;BME280;2220;42.670;23.398;2023-02-23T05:47:57;94438.56;;;4.08;100.00
4415;BME280;2220;42.670;23.398;2023-02-23T05:50:24;94457.59;;;3.95;100.00
4415;BME280;2220;42.670;23.398;2023-02-23T05:52:49;94462.28;;;3.86;100.00
4415;BME280;2220;42.670;23.398;2023-02-23T05:55:15;94459.06;;;3.61;100.00
4415;BME280;2220;42.670;23.398;2023-02-23T05:57:40;94429.75;;;3.74;100.00
4415;BME280;2220;42.670;23.398;2023-02-23T06:00:07;94434.13;;;3.85;100.00
4415;BME280;2220;42.670;23.398;2023-02-23T06:02:33;94436.59;;;3.80;100.00
4415;BME280;2220;42.670;23.398;2023-02-23T06:05:00;94446.84;;;3.56;100.00
4415;BME280;2220;42.670;23.398;2023-02-23T06:07:26;94411.59;;;3.69;100.00
4415;BME280;2220;42.670;23.398;2023-02-23T06:09:51;94406.44;;;3.69;100.00
4415;BME280;2220;42.670;23.398;2023-02-23T06:12:17;94394.69;;;3.73;100.00
4415;BME280;2220;42.670;23.398;2023-02-23T06:14:42;94391.25;;;3.79;100.00
4415;BME280;2220;42.670;23.398;2023-02-23T06:17:07;94402.19;;;3.74;100.00
4415;BME280;2220;42.670;23.398;2023-02-23T06:19:33;94395.25;;;3.75;100.00
4415;BME280;2220;42.670;23.398;2023-02-23T06:21:58;94388.53;;;3.74;100.00
4415;BME280;2220;42.670;23.398;2023-02-23T06:24:24;94365.38;;;4.09;100.00
4415;BME280;2220;42.670;23.398;2023-02-23T06:26:50;94408.59;;;3.83;100.00
4415;BME280;2220;42.670;23.398;2023-02-23T06:29:15;94394.94;;;3.71;100.00
4415;BME280;2220;42.670;23.398;2023-02-23T06:31:41;94356.84;;;3.61;100.00
4415;BME280;2220;42.670;23.398;2023-02-23T06:34:08;94319.53;;;3.64;100.00
4415;BME280;2220;42.670;23.398;2023-02-23T06:36:34;94283.72;;;3.62;100.00
4415;BME280;2220;42.670;23.398;2023-02-23T06:39:00;94254.47;;;3.57;100.00
4415;BME280;2220;42.670;23.398;2023-02-23T06:41:26;94208.13;;;3.69;100.00
4415;BME280;2220;42.670;23.398;2023-02-23T06:43:52;94185.50;;;3.59;100.00
4415;BME280;2220;42.670;23.398;2023-02-23T06:46:18;94147.66;;;3.59;100.00
4415;BME280;2220;42.670;23.398;2023-02-23T06:48:43;94100.41;;;3.65;100.00
4415;BME280;2220;42.670;23.398;2023-02-23T06:51:09;94063.81;;;3.63;100.00
4415;BME280;2220;42.670;23.398;2023-02-23T06:53:35;94028.81;;;3.79;100.00
4415;BME280;2220;42.670;23.398;2023-02-23T06:56:00;93990.84;;;4.03;100.00
4415;BME280;2220;42.670;23.398;2023-02-23T06:58:27;93980.38;;;3.93;100.00
4415;BME280;2220;42.670;23.398;2023-02-23T07:00:56;93954.75;;;4.03;100.00
4415;BME280;2220;42.670;23.398;2023-02-23T07:03:23;93942.97;;;4.07;100.00
4415;BME280;2220;42.670;23.398;2023-02-23T07:05:48;93930.31;;;4.22;100.00
4415;BME280;2220;42.670;23.398;2023-02-23T07:08:15;93931.31;;;4.21;100.00
4415;BME280;2220;42.670;23.398;2023-02-23T07:10:42;93912.09;;;4.29;100.00
4415;BME280;2220;42.670;23.398;2023-02-23T07:13:08;93908.44;;;4.42;100.00
4415;BME280;2220;42.670;23.398;2023-02-23T07:15:35;93937.38;;;4.49;100.00
4415;BME280;2220;42.670;23.398;2023-02-23T07:18:01;93945.69;;;4.51;100.00
4415;BME280;2220;42.670;23.398;2023-02-23T07:20:26;93942.72;;;4.81;100.00
4415;BME280;2220;42.670;23.398;2023-02-23T07:22:52;93975.22;;;4.99;100.00
4415;BME280;2220;42.670;23.398;2023-02-23T07:25:19;94029.38;;;5.16;100.00
4415;BME280;2220;42.670;23.398;2023-02-23T07:27:44;94099.38;;;5.19;100.00
4415;BME280;2220;42.670;23.398;2023-02-23T07:30:11;94150.22;;;5.36;100.00
4415;BME280;2220;42.670;23.398;2023-02-23T07:32:36;94166.00;;;5.56;100.00
4415;BME280;2220;42.670;23.398;2023-02-23T07:35:03;94189.16;;;5.89;100.00
4415;BME280;2220;42.670;23.398;2023-02-23T07:37:29;94249.63;;;6.05;100.00
4415;BME280;2220;42.670;23.398;2023-02-23T07:39:54;94312.81;;;6.31;100.00
4415;BME280;2220;42.670;23.398;2023-02-23T07:42:20;94380.56;;;6.67;100.00
4415;BME280;2220;42.670;23.398;2023-02-23T07:44:45;94446.25;;;6.83;100.00
4415;BME280;2220;42.670;23.398;2023-02-23T07:47:11;94510.78;;;6.89;100.00
4415;BME280;2220;42.670;23.398;2023-02-23T07:49:36;94548.03;;;7.05;100.00
4415;BME280;2220;42.670;23.398;2023-02-23T07:52:02;94584.34;;;7.27;100.00
4415;BME280;2220;42.670;23.398;2023-02-23T07:54:27;94623.88;;;7.56;100.00
4415;BME280;2220;42.670;23.398;2023-02-23T07:56:53;94658.41;;;7.78;100.00
4415;BME280;2220;42.670;23.398;2023-02-23T07:59:18;94687.16;;;7.99;100.00
4415;BME280;2220;42.670;23.398;2023-02-23T08:01:44;94713.72;;;8.06;100.00
4415;BME280;2220;42.670;23.398;2023-02-23T08:04:09;94722.19;;;8.18;100.00
4415;BME280;2220;42.670;23.398;2023-02-23T08:06:35;94755.91;;;8.35;100.00
4415;BME280;2220;42.670;23.398;2023-02-23T08:09:02;94763.75;;;8.23;100.00
4415;BME280;2220;42.670;23.398;2023-02-23T08:11:28;94769.44;;;8.20;100.00
4415;BME280;2220;42.670;23.398;2023-02-23T08:13:54;94770.75;;;8.23;100.00
4415;BME280;2220;42.670;23.398;2023-02-23T08:16:26;94778.66;;;8.33;100.00
4415;BME280;2220;42.670;23.398;2023-02-23T08:18:52;94782.94;;;8.39;100.00
4415;BME280;2220;42.670;23.398;2023-02-23T08:21:18;94788.31;;;8.76;100.00
4415;BME280;2220;42.670;23.398;2023-02-23T08:23:43;94792.13;;;8.68;100.00
4415;BME280;2220;42.670;23.398;2023-02-23T08:26:09;94794.41;;;8.65;100.00
4415;BME280;2220;42.670;23.398;2023-02-23T08:28:36;94791.16;;;8.75;100.00
4415;BME280;2220;42.670;23.398;2023-02-23T08:31:01;94809.13;;;8.81;100.00
4415;BME280;2220;42.670;23.398;2023-02-23T08:33:27;94804.88;;;8.92;100.00
4415;BME280;2220;42.670;23.398;2023-02-23T08:35:53;94824.88;;;9.18;100.00
4415;BME280;2220;42.670;23.398;2023-02-23T08:38:19;94824.53;;;9.10;100.00
4415;BME280;2220;42.670;23.398;2023-02-23T08:40:45;94823.91;;;9.24;100.00
4415;BME280;2220;42.670;23.398;2023-02-23T08:43:11;94834.41;;;9.62;100.00
4415;BME280;2220;42.670;23.398;2023-02-23T08:45:36;94826.06;;;9.92;100.00
4415;BME280;2220;42.670;23.398;2023-02-23T08:48:04;94843.88;;;10.10;100.00
4415;BME280;2220;42.670;23.398;2023-02-23T08:50:29;94845.88;;;9.66;100.00
4415;BME280;2220;42.670;23.398;2023-02-23T08:52:55;94847.50;;;10.04;100.00
4415;BME280;2220;42.670;23.398;2023-02-23T08:55:20;94851.88;;;9.98;100.00
4415;BME280;2220;42.670;23.398;2023-02-23T08:57:46;94852.22;;;10.07;100.00
4415;BME280;2220;42.670;23.398;2023-02-23T09:00:12;94855.66;;;10.18;100.00
4415;BME280;2220;42.670;23.398;2023-02-23T09:02:42;94863.00;;;10.21;100.00
4415;BME280;2220;42.670;23.398;2023-02-23T09:05:08;94861.72;;;10.65;100.00
4415;BME280;2220;42.670;23.398;2023-02-23T09:07:34;94862.41;;;10.98;100.00
4415;BME280;2220;42.670;23.398;2023-02-23T09:09:59;94863.84;;;11.31;100.00
4415;BME280;2220;42.670;23.398;2023-02-23T09:12:25;94868.81;;;11.43;100.00
4415;BME280;2220;42.670;23.398;2023-02-23T09:14:50;94875.38;;;11.56;100.00
4415;BME280;2220;42.670;23.398;2023-02-23T09:17:18;94866.53;;;11.67;100.00
4415;BME280;2220;42.670;23.398;2023-02-23T09:19:44;94869.41;;;11.75;100.00
4415;BME280;2220;42.670;23.398;2023-02-23T09:22:10;94870.25;;;11.96;100.00
4415;BME280;2220;42.670;23.398;2023-02-23T09:24:35;94870.75;;;12.09;100.00
4415;BME280;2220;42.670;23.398;2023-02-23T09:27:03;94866.06;;;12.00;100.00
4415;BME280;2220;42.670;23.398;2023-02-23T09:29:28;94867.88;;;11.95;100.00
4415;BME280;2220;42.670;23.398;2023-02-23T09:31:54;94867.88;;;12.36;100.00
4415;BME280;2220;42.670;23.398;2023-02-23T09:34:22;94873.63;;;12.17;100.00
4415;BME280;2220;42.670;23.398;2023-02-23T09:36:47;94865.03;;;11.96;100.00
4415;BME280;2220;42.670;23.398;2023-02-23T09:39:13;94869.19;;;12.13;100.00
4415;BME280;2220;42.670;23.398;2023-02-23T09:41:59;94865.03;;;12.12;100.00
4415;BME280;2220;42.670;23.398;2023-02-23T09:48:01;94863.19;;;12.22;100.00
4415;BME280;2220;42.670;23.398;2023-02-23T09:50:23;94867.84;;;12.51;100.00
4415;BME280;2220;42.670;23.398;2023-02-23T09:52:54;94858.16;;;12.72;100.00
4415;BME280;2220;42.670;23.398;2023-02-23T09:55:21;94861.81;;;12.66;100.00
4415;BME280;2220;42.670;23.398;2023-02-23T09:57:48;94861.31;;;12.69;100.00
4415;BME280;2220;42.670;23.398;2023-02-23T10:00:25;94858.16;;;12.77;100.00
4415;BME280;2220;42.670;23.398;2023-02-23T10:05:41;94850.44;;;13.06;100.00
4415;BME280;2220;42.670;23.398;2023-02-23T10:08:19;94862.19;;;13.24;99.83
4415;BME280;2220;42.670;23.398;2023-02-23T10:10:50;94858.53;;;13.25;99.45
4415;BME280;2220;42.670;23.398;2023-02-23T10:19:02;94843.25;;;13.42;97.54
4415;BME280;2220;42.670;23.398;2023-02-23T10:21:35;94845.38;;;13.35;96.73
4415;BME280;2220;42.670;23.398;2023-02-23T10:26:55;94833.19;;;13.64;95.98
4415;BME280;2220;42.670;23.398;2023-02-23T10:29:32;94832.75;;;13.86;95.75
4415;BME280;2220;42.670;23.398;2023-02-23T10:32:03;94829.72;;;14.08;95.69
4415;BME280;2220;42.670;23.398;2023-02-23T10:34:30;94831.34;;;14.04;94.22
4415;BME280;2220;42.670;23.398;2023-02-23T10:37:01;94825.50;;;14.12;93.66
4415;BME280;2220;42.670;23.398;2023-02-23T10:39:31;94818.22;;;14.33;93.30
4415;BME280;2220;42.670;23.398;2023-02-23T10:42:04;94824.03;;;14.30;93.03
4415;BME280;2220;42.670;23.398;2023-02-23T10:44:31;94819.06;;;14.58;93.54
4415;BME280;2220;42.670;23.398;2023-02-23T10:47:18;94819.34;;;14.80;93.27
4415;BME280;2220;42.670;23.398;2023-02-23T10:49:51;94812.34;;;15.18;94.17
4415;BME280;2220;42.670;23.398;2023-02-23T10:52:40;94821.44;;;15.45;93.23
4415;BME280;2220;42.670;23.398;2023-02-23T10:55:07;94817.44;;;15.28;93.27
4415;BME280;2220;42.670;23.398;2023-02-23T10:57:43;94817.09;;;15.54;92.66
4415;BME280;2220;42.670;23.398;2023-02-23T11:02:42;94815.84;;;15.70;91.73
4415;BME280;2220;42.670;23.398;2023-02-23T11:05:28;94805.22;;;15.80;90.91
4415;BME280;2220;42.670;23.398;2023-02-23T11:08:38;94798.56;;;16.02;89.59
4415;BME280;2220;42.670;23.398;2023-02-23T11:11:16;94802.13;;;16.25;87.24
4415;BME280;2220;42.670;23.398;2023-02-23T11:13:45;94786.09;;;16.40;85.40
4415;BME280;2220;42.670;23.398;2023-02-23T11:16:13;94785.31;;;16.39;84.47
4415;BME280;2220;42.670;23.398;2023-02-23T11:18:50;94790.47;;;16.44;82.87
4415;BME280;2220;42.670;23.398;2023-02-23T11:21:33;94777.63;;;16.57;81.65
4415;BME280;2220;42.670;23.398;2023-02-23T11:24:25;94780.34;;;16.51;80.73
4415;BME280;2220;42.670;23.398;2023-02-23T11:26:53;94773.81;;;16.49;78.85
4415;BME280;2220;42.670;23.398;2023-02-23T11:29:29;94772.28;;;16.62;77.79
4415;BME280;2220;42.670;23.398;2023-02-23T11:32:34;94764.00;;;16.68;76.71
4415;BME280;2220;42.670;23.398;2023-02-23T11:37:44;94757.41;;;16.85;75.54
4415;BME280;2220;42.670;23.398;2023-02-23T11:40:31;94753.09;;;17.02;76.24
4415;BME280;2220;42.670;23.398;2023-02-23T11:45:58;94751.28;;;17.25;73.95
4415;BME280;2220;42.670;23.398;2023-02-23T11:50:57;94740.63;;;17.89;71.45
4415;BME280;2220;42.670;23.398;2023-02-23T11:53:31;94730.97;;;17.84;71.38
4415;BME280;2220;42.670;23.398;2023-02-23T11:56:00;94728.91;;;17.73;71.30
4415;BME280;2220;42.670;23.398;2023-02-23T12:01:20;94729.84;;;17.18;72.31
4415;BME280;2220;42.670;23.398;2023-02-23T12:03:56;94721.50;;;17.39;72.53
4415;BME280;2220;42.670;23.398;2023-02-23T12:06:40;94723.97;;;17.57;70.66
4415;BME280;2220;42.670;23.398;2023-02-23T12:12:09;94728.81;;;17.05;70.38
4415;BME280;2220;42.670;23.398;2023-02-23T12:17:26;94726.19;;;17.42;70.54
4415;BME280;2220;42.670;23.398;2023-02-23T12:22:28;94712.44;;;17.09;69.95
4415;BME280;2220;42.670;23.398;2023-02-23T12:25:03;94714.97;;;17.36;71.92
4415;BME280;2220;42.670;23.398;2023-02-23T12:27:41;94712.25;;;17.41;70.36
4415;BME280;2220;42.670;23.398;2023-02-23T12:30:14;94707.72;;;17.19;69.67
4415;BME280;2220;42.670;23.398;2023-02-23T12:32:44;94710.13;;;17.29;69.67
4415;BME280;2220;42.670;23.398;2023-02-23T12:35:21;94714.16;;;17.49;69.59
4415;BME280;2220;42.670;23.398;2023-02-23T12:37:59;94710.81;;;17.57;68.73
4415;BME280;2220;42.670;23.398;2023-02-23T12:40:29;94708.16;;;17.35;70.34
4415;BME280;2220;42.670;23.398;2023-02-23T12:46:13;94715.22;;;17.48;68.82
4415;BME280;2220;42.670;23.398;2023-02-23T12:51:50;94709.59;;;17.63;68.99
4415;BME280;2220;42.670;23.398;2023-02-23T12:54:17;94695.13;;;17.75;67.51
4415;BME280;2220;42.670;23.398;2023-02-23T13:02:28;94702.78;;;17.85;67.32
4415;BME280;2220;42.670;23.398;2023-02-23T13:10:40;94694.09;;;17.84;67.40
4415;BME280;2220;42.670;23.398;2023-02-23T13:13:28;94689.53;;;17.54;67.28
4415;BME280;2220;42.670;23.398;2023-02-23T13:16:20;94686.09;;;17.89;67.17
4415;BME280;2220;42.670;23.398;2023-02-23T13:19:08;94695.63;;;18.08;66.45
4415;BME280;2220;42.670;23.398;2023-02-23T13:29:42;94692.31;;;17.49;65.92
4415;BME280;2220;42.670;23.398;2023-02-23T13:32:20;94684.59;;;17.75;65.49
4415;BME280;2220;42.670;23.398;2023-02-23T13:34:55;94673.91;;;17.80;65.21
4415;BME280;2220;42.670;23.398;2023-02-23T13:37:24;94684.28;;;17.76;65.25
4415;BME280;2220;42.670;23.398;2023-02-23T13:43:07;94678.59;;;17.60;64.22
4415;BME280;2220;42.670;23.398;2023-02-23T13:51:29;94680.63;;;17.19;65.23
4415;BME280;2220;42.670;23.398;2023-02-23T13:53:59;94681.47;;;17.50;64.39
4415;BME280;2220;42.670;23.398;2023-02-23T13:56:28;94684.94;;;17.37;63.92
4415;BME280;2220;42.670;23.398;2023-02-23T14:01:31;94686.63;;;17.33;64.33
4415;BME280;2220;42.670;23.398;2023-02-23T14:04:01;94676.56;;;17.35;63.84
4415;BME280;2220;42.670;23.398;2023-02-23T14:06:29;94679.59;;;17.06;66.67
4415;BME280;2220;42.670;23.398;2023-02-23T14:09:16;94676.31;;;17.00;69.74
4415;BME280;2220;42.670;23.398;2023-02-23T14:12:00;94682.41;;;17.10;70.93
4415;BME280;2220;42.670;23.398;2023-02-23T14:19:43;94686.19;;;17.17;71.77
4415;BME280;2220;42.670;23.398;2023-02-23T14:22:12;94682.13;;;17.11;72.46
4415;BME280;2220;42.670;23.398;2023-02-23T14:24:38;94692.41;;;16.85;72.94
4415;BME280;2220;42.670;23.398;2023-02-23T14:27:20;94694.75;;;16.87;73.71
4415;BME280;2220;42.670;23.398;2023-02-23T14:32:43;94708.91;;;16.77;74.54
4415;BME280;2220;42.670;23.398;2023-02-23T14:38:10;94709.84;;;16.67;75.17
4415;BME280;2220;42.670;23.398;2023-02-23T14:40:40;94700.50;;;16.47;75.31
4415;BME280;2220;42.670;23.398;2023-02-23T14:46:00;94710.34;;;16.14;77.33
4415;BME280;2220;42.670;23.398;2023-02-23T14:48:30;94712.84;;;16.06;77.22
4415;BME280;2220;42.670;23.398;2023-02-23T14:51:35;94723.59;;;15.77;78.00
4415;BME280;2220;42.670;23.398;2023-02-23T14:54:09;94717.34;;;15.54;78.41
4415;BME280;2220;42.670;23.398;2023-02-23T14:56:44;94721.13;;;15.48;79.49
4415;BME280;2220;42.670;23.398;2023-02-23T14:59:16;94725.69;;;15.42;79.97
4415;BME280;2220;42.670;23.398;2023-02-23T15:01:43;94733.84;;;15.03;80.78
4415;BME280;2220;42.670;23.398;2023-02-23T15:04:15;94740.59;;;15.09;81.20
4415;BME280;2220;42.670;23.398;2023-02-23T15:06:41;94725.13;;;15.07;80.95
4415;BME280;2220;42.670;23.398;2023-02-23T15:09:17;94742.91;;;14.92;81.75
4415;BME280;2220;42.670;23.398;2023-02-23T15:11:47;94749.34;;;14.80;82.26
4415;BME280;2220;42.670;23.398;2023-02-23T15:14:15;94742.16;;;14.67;82.39
4415;BME280;2220;42.670;23.398;2023-02-23T15:16:42;94748.91;;;14.49;82.82
4415;BME280;2220;42.670;23.398;2023-02-23T15:19:15;94750.53;;;14.45;82.91
4415;BME280;2220;42.670;23.398;2023-02-23T15:21:41;94747.47;;;14.33;83.84
4415;BME280;2220;42.670;23.398;2023-02-23T15:24:11;94762.44;;;14.33;84.29
4415;BME280;2220;42.670;23.398;2023-02-23T15:26:39;94762.66;;;14.12;85.14
4415;BME280;2220;42.670;23.398;2023-02-23T15:29:14;94770.66;;;13.92;86.43
4415;BME280;2220;42.670;23.398;2023-02-23T15:31:42;94773.84;;;13.89;86.83
4415;BME280;2220;42.670;23.398;2023-02-23T15:34:22;94769.69;;;13.83;87.41
4415;BME280;2220;42.670;23.398;2023-02-23T15:36:58;94783.72;;;13.63;88.33
4415;BME280;2220;42.670;23.398;2023-02-23T15:39:38;94792.50;;;13.43;89.83
4415;BME280;2220;42.670;23.398;2023-02-23T15:42:13;94799.34;;;13.34;90.26
4415;BME280;2220;42.670;23.398;2023-02-23T15:44:39;94802.56;;;13.15;91.70